Time;durP1;ratioP1;P1;durP2;ratioP2;P2;SDS_P1;SDS_P2;PMS_P1;PMS_P2;Temp;Humidity;BMP_temperature;BMP_pressure;BME280_temperature;BME280_humidity;BME280_pressure;Samples;Min_cycle;Max_cycle;Signal;HPM_P1;HPM_P2
2023/05/18 00:02:07;;;;;;;5.57;4.00;;;;;;;4.21;100.00;97014.88;7398562;19;20366;-74
2023/05/18 00:04:35;;;;;;;7.17;4.70;;;;;;;4.41;100.00;97022.66;7395424;19;21004;-74
2023/05/18 00:07:03;;;;;;;9.20;4.97;;;;;;;4.12;100.00;97004.94;7396840;19;20380;-74
2023/05/18 00:09:33;;;;;;;8.97;4.93;;;;;;;4.04;100.00;97000.28;7395628;19;20381;-74
2023/05/18 00:12:02;;;;;;;6.40;5.03;;;;;;;4.13;100.00;97024.81;7396813;19;20974;-74
2023/05/18 00:14:30;;;;;;;4.83;4.30;;;;;;;3.72;100.00;96984.91;7395598;19;20365;-75
2023/05/18 00:17:00;;;;;;;7.30;4.37;;;;;;;3.74;100.00;96989.88;7398089;19;20405;-75
2023/05/18 00:19:28;;;;;;;5.63;4.47;;;;;;;4.07;100.00;97004.19;7395785;19;20400;-75
2023/05/18 00:21:56;;;;;;;5.57;4.17;;;;;;;3.99;100.00;97013.34;7396115;19;20527;-75
2023/05/18 00:24:23;;;;;;;6.53;4.30;;;;;;;3.90;100.00;97025.44;7395914;19;20380;-75
2023/05/18 00:26:50;;;;;;;8.00;5.30;;;;;;;3.79;100.00;96988.06;7397201;19;20940;-74
2023/05/18 00:29:17;;;;;;;5.63;3.70;;;;;;;4.02;100.00;96999.75;7395492;19;20944;-74
2023/05/18 00:31:45;;;;;;;9.57;4.70;;;;;;;3.98;100.00;96988.25;7396046;19;20436;-75
2023/05/18 00:34:14;;;;;;;5.00;4.33;;;;;;;4.10;100.00;97006.25;7396076;19;20393;-75
2023/05/18 00:36:41;;;;;;;7.90;5.20;;;;;;;3.90;100.00;96967.09;7395874;19;20400;-75
2023/05/18 00:39:09;;;;;;;7.27;4.60;;;;;;;3.92;100.00;96983.31;7395896;19;20950;-74
2023/05/18 00:41:36;;;;;;;7.33;4.60;;;;;;;3.92;100.00;97005.03;7392273;19;20432;-74
2023/05/18 00:44:03;;;;;;;4.17;3.70;;;;;;;3.89;100.00;97016.03;7395651;19;20383;-74
2023/05/18 00:46:31;;;;;;;9.10;4.30;;;;;;;3.56;100.00;96999.88;7394193;19;20388;-74
2023/05/18 00:49:00;;;;;;;15.27;4.67;;;;;;;3.38;100.00;96981.34;7395563;19;20365;-74
2023/05/18 00:51:28;;;;;;;23.47;8.13;;;;;;;3.56;100.00;96997.25;7394376;19;20408;-74
2023/05/18 00:53:58;;;;;;;39.47;10.33;;;;;;;3.70;100.00;97009.78;7395625;19;20360;-75
2023/05/18 00:56:27;;;;;;;41.10;8.93;;;;;;;3.51;100.00;96967.72;7392664;19;20372;-74
2023/05/18 00:58:56;;;;;;;59.33;15.03;;;;;;;3.61;100.00;96987.84;7395665;19;20497;-74
2023/05/18 01:01:28;;;;;;;66.03;11.23;;;;;;;3.69;100.00;96980.22;7392690;19;20460;-74
2023/05/18 01:04:00;;;;;;;45.87;9.83;;;;;;;3.79;100.00;97008.19;7395678;19;20384;-74
2023/05/18 01:06:39;;;;;;;37.83;8.40;;;;;;;3.95;100.00;97014.94;7394229;19;20739;-75
2023/05/18 01:09:09;;;;;;;30.40;10.17;;;;;;;3.83;100.00;96989.09;7392904;19;20928;-74
2023/05/18 01:12:04;;;;;;;42.30;9.03;;;;;;;3.74;100.00;97005.56;7393011;19;20425;-74
2023/05/18 01:14:48;;;;;;;35.53;7.33;;;;;;;3.33;100.00;97005.63;7394329;19;20427;-74
2023/05/18 01:17:49;;;;;;;25.77;7.30;;;;;;;3.37;100.00;96998.84;7391344;19;20352;-74
2023/05/18 01:20:45;;;;;;;31.07;7.23;;;;;;;3.37;100.00;96991.00;7394938;19;20866;-74
2023/05/18 01:23:34;;;;;;;26.20;6.90;;;;;;;3.28;100.00;96994.41;7396339;19;20345;-74
2023/05/18 01:26:15;;;;;;;23.40;6.57;;;;;;;3.34;100.00;96983.72;7397525;19;20376;-74
2023/05/18 01:28:45;;;;;;;28.30;7.73;;;;;;;3.26;100.00;96979.78;7400262;19;20364;-74
2023/05/18 01:31:14;;;;;;;45.57;8.30;;;;;;;3.22;100.00;96998.88;7396511;19;20420;-74
2023/05/18 01:33:45;;;;;;;37.30;6.57;;;;;;;3.05;100.00;96970.38;7400458;19;20673;-74
2023/05/18 01:36:12;;;;;;;33.43;7.27;;;;;;;3.04;100.00;96986.31;7401645;19;20375;-74
2023/05/18 01:38:40;;;;;;;21.60;6.43;;;;;;;3.02;100.00;96975.34;7400223;19;20948;-74
2023/05/18 01:41:22;;;;;;;23.00;6.70;;;;;;;3.09;100.00;97005.41;7399995;19;20412;-75
2023/05/18 01:44:17;;;;;;;23.73;6.23;;;;;;;3.07;100.00;97007.50;7400652;19;20940;-74
2023/05/18 01:47:05;;;;;;;15.27;5.60;;;;;;;3.04;100.00;96997.53;7399826;19;20479;-74
2023/05/18 01:49:41;;;;;;;14.90;5.10;;;;;;;2.95;100.00;96971.19;7402295;19;20396;-74
2023/05/18 01:52:39;;;;;;;15.17;5.20;;;;;;;2.52;100.00;96964.59;7401090;19;20356;-74
2023/05/18 01:55:08;;;;;;;27.63;5.67;;;;;;;2.66;100.00;96957.81;7399405;19;20383;-74
2023/05/18 01:57:38;;;;;;;13.40;4.40;;;;;;;2.61;100.00;96981.31;7401156;19;20392;-74
2023/05/18 02:00:07;;;;;;;14.20;5.33;;;;;;;2.31;100.00;96939.50;7399725;19;20408;-74
2023/05/18 02:02:45;;;;;;;11.53;4.83;;;;;;;2.37;100.00;96962.72;7399165;19;20996;-74
2023/05/18 02:05:15;;;;;;;15.37;5.23;;;;;;;2.60;100.00;96955.47;7401052;19;20404;-74
2023/05/18 02:07:46;;;;;;;10.23;4.30;;;;;;;2.83;100.00;96975.88;7399627;19;20376;-74
2023/05/18 02:10:13;;;;;;;12.60;4.40;;;;;;;2.93;100.00;96982.91;7399963;19;20944;-74
2023/05/18 02:12:40;;;;;;;12.00;4.90;;;;;;;2.88;100.00;96959.41;7401288;19;20889;-74
2023/05/18 02:15:08;;;;;;;7.07;4.27;;;;;;;2.74;100.00;96947.91;7400935;19;20368;-74
2023/05/18 02:17:38;;;;;;;7.60;4.37;;;;;;;2.89;100.00;96950.53;7397540;19;20435;-74
2023/05/18 02:20:06;;;;;;;21.13;8.30;;;;;;;2.73;100.00;96964.63;7400414;19;20420;-74
2023/05/18 02:22:34;;;;;;;10.70;5.20;;;;;;;2.52;100.00;96951.53;7400923;19;20373;-74
2023/05/18 02:25:03;;;;;;;8.73;4.03;;;;;;;2.76;100.00;96972.72;7400713;19;20913;-75
2023/05/18 02:27:32;;;;;;;12.37;4.30;;;;;;;2.26;100.00;96931.66;7399180;19;20813;-74
2023/05/18 02:29:59;;;;;;;12.60;5.93;;;;;;;2.24;100.00;96941.56;7400963;19;20416;-74
2023/05/18 02:32:26;;;;;;;12.00;4.53;;;;;;;2.58;100.00;96973.22;7400069;19;20369;-74
2023/05/18 02:34:53;;;;;;;10.73;3.90;;;;;;;2.52;100.00;96972.41;7401143;19;20447;-74
2023/05/18 02:37:21;;;;;;;9.83;4.40;;;;;;;2.58;100.00;96970.63;7395714;19;20365;-75
2023/05/18 02:39:49;;;;;;;21.83;5.23;;;;;;;2.47;100.00;96972.41;7400648;19;20380;-74
2023/05/18 02:42:16;;;;;;;10.93;4.70;;;;;;;2.43;100.00;96953.09;7399517;19;20380;-74
2023/05/18 02:44:43;;;;;;;12.30;4.63;;;;;;;2.34;100.00;96965.06;7400978;19;20448;-75
2023/05/18 02:47:13;;;;;;;12.47;4.83;;;;;;;2.44;100.00;96979.97;7399512;19;20762;-75
2023/05/18 02:49:40;;;;;;;9.83;4.40;;;;;;;2.32;100.00;96967.16;7397344;19;20367;-75
2023/05/18 02:52:07;;;;;;;8.57;4.27;;;;;;;2.35;100.00;96975.25;7399325;19;20368;-74
2023/05/18 02:54:34;;;;;;;11.53;4.77;;;;;;;2.43;100.00;96975.81;7397888;19;20413;-74
2023/05/18 02:57:03;;;;;;;12.87;4.40;;;;;;;2.01;100.00;96951.44;7398103;19;20770;-74
2023/05/18 03:00:08;;;;;;;11.90;5.70;;;;;;;2.25;100.00;96983.03;7398689;19;20444;-74
2023/05/18 03:02:37;;;;;;;8.20;4.77;;;;;;;2.37;100.00;96977.59;7397042;19;20373;-74
2023/05/18 03:05:06;;;;;;;7.50;4.33;;;;;;;1.99;100.00;96961.31;7398960;19;20372;-74
2023/05/18 03:07:32;;;;;;;6.47;5.87;;;;;;;1.69;100.00;96958.56;7397190;19;20403;-74
2023/05/18 03:10:02;;;;;;;9.13;4.37;;;;;;;1.94;100.00;96981.38;7397755;19;21004;-75
2023/05/18 03:12:30;;;;;;;8.20;5.03;;;;;;;2.01;100.00;96982.72;7400128;19;20381;-75
2023/05/18 03:14:57;;;;;;;11.60;5.30;;;;;;;2.03;100.00;96959.78;7398215;19;21052;-74
2023/05/18 03:17:25;;;;;;;5.30;4.80;;;;;;;1.87;100.00;96970.38;7396452;19;20393;-74
2023/05/18 03:19:52;;;;;;;8.83;4.20;;;;;;;2.01;100.00;96954.03;7397775;19;20408;-74
2023/05/18 03:22:19;;;;;;;5.10;4.20;;;;;;;1.84;100.00;96950.03;7397027;19;20392;-74
2023/05/18 03:24:49;;;;;;;4.27;3.60;;;;;;;1.99;100.00;96966.50;7398556;19;20390;-74
2023/05/18 03:27:19;;;;;;;9.50;4.83;;;;;;;1.94;100.00;96983.97;7398716;19;20373;-74
2023/05/18 03:29:45;;;;;;;5.70;3.40;;;;;;;1.83;100.00;96974.53;7400280;19;20354;-74
2023/05/18 03:32:12;;;;;;;9.13;3.80;;;;;;;1.58;100.00;96983.78;7397068;19;20484;-74
2023/05/18 03:34:39;;;;;;;12.90;7.63;;;;;;;1.37;100.00;96964.66;7398115;19;20765;-74
2023/05/18 03:37:07;;;;;;;8.83;7.90;;;;;;;1.59;100.00;96989.78;7395916;19;20428;-74
2023/05/18 03:39:34;;;;;;;10.40;7.83;;;;;;;1.54;100.00;96968.91;7398262;19;20376;-74
2023/05/18 03:42:01;;;;;;;11.70;10.50;;;;;;;1.78;100.00;96988.34;7396947;19;20373;-74
2023/05/18 03:44:28;;;;;;;7.07;6.43;;;;;;;1.73;100.00;96967.44;7394914;19;20424;-74
2023/05/18 03:46:56;;;;;;;7.07;6.10;;;;;;;1.96;100.00;96995.72;7396780;19;20396;-74
2023/05/18 03:49:23;;;;;;;7.17;5.57;;;;;;;1.92;100.00;96967.81;7397747;19;20385;-74
2023/05/18 03:51:53;;;;;;;7.50;5.23;;;;;;;1.95;100.00;97004.56;7394501;19;20416;-74
2023/05/18 03:54:20;;;;;;;5.50;3.73;;;;;;;1.70;100.00;96978.38;7398165;19;20412;-74
2023/05/18 03:56:47;;;;;;;17.03;4.93;;;;;;;1.79;100.00;96995.13;7396183;19;20379;-74
2023/05/18 03:59:15;;;;;;;4.30;3.20;;;;;;;1.70;100.00;96996.63;7398338;19;20377;-74
2023/05/18 04:01:43;;;;;;;6.70;4.33;;;;;;;1.72;100.00;96997.94;7395232;19;20434;-74
2023/05/18 04:04:16;;;;;;;4.87;3.40;;;;;;;1.84;100.00;96996.97;7397966;19;20436;-74
2023/05/18 04:06:45;;;;;;;6.37;3.27;;;;;;;1.66;100.00;96995.56;7396793;19;20397;-74
2023/05/18 04:09:16;;;;;;;5.20;3.50;;;;;;;1.80;100.00;96996.69;7395924;19;20403;-75
2023/05/18 04:11:43;;;;;;;5.70;3.73;;;;;;;1.61;100.00;96978.09;7394728;19;20477;-74
2023/05/18 04:14:11;;;;;;;5.97;3.47;;;;;;;2.05;100.00;97003.84;7395365;19;20376;-74
2023/05/18 04:16:38;;;;;;;4.10;3.20;;;;;;;1.96;100.00;96974.84;7396251;19;20724;-74
2023/05/18 04:19:07;;;;;;;6.63;3.70;;;;;;;1.96;100.00;96982.69;7396566;19;20353;-74
2023/05/18 04:21:34;;;;;;;6.43;3.90;;;;;;;2.15;100.00;96979.63;7395301;19;20542;-74
2023/05/18 04:24:06;;;;;;;6.97;4.60;;;;;;;2.39;100.00;97006.81;7395260;19;20492;-74
2023/05/18 04:26:35;;;;;;;7.47;4.30;;;;;;;2.28;100.00;96977.34;7396878;19;20758;-74
2023/05/18 04:29:02;;;;;;;13.87;3.73;;;;;;;2.49;100.00;97008.69;7395231;19;20888;-74
2023/05/18 04:31:29;;;;;;;9.63;4.67;;;;;;;2.56;100.00;96999.59;7395209;19;20770;-74
2023/05/18 04:33:57;;;;;;;17.03;4.50;;;;;;;2.41;100.00;96983.09;7395293;19;20381;-74
2023/05/18 04:36:24;;;;;;;4.53;4.23;;;;;;;2.56;100.00;96983.13;7396450;19;20377;-74
2023/05/18 04:38:52;;;;;;;7.20;4.07;;;;;;;2.77;100.00;97010.84;7403828;19;20424;-76
2023/05/18 04:41:19;;;;;;;8.27;4.97;;;;;;;2.59;100.00;96972.19;7430827;19;20457;-76
2023/05/18 04:43:47;;;;;;;4.90;3.80;;;;;;;2.91;100.00;96995.44;7429892;19;20376;-76
2023/05/18 04:46:15;;;;;;;8.90;4.23;;;;;;;2.60;100.00;96945.81;7422472;19;20472;-75
2023/05/18 04:48:43;;;;;;;5.67;4.13;;;;;;;3.07;100.00;96986.59;7395296;19;20391;-74
2023/05/18 04:51:10;;;;;;;9.00;4.00;;;;;;;3.30;100.00;97016.63;7396063;19;20417;-74
2023/05/18 04:53:37;;;;;;;4.77;3.33;;;;;;;3.40;100.00;97006.16;7397397;19;20574;-74
2023/05/18 04:56:05;;;;;;;5.20;3.73;;;;;;;3.58;100.00;97009.28;7397133;19;20369;-74
2023/05/18 04:58:33;;;;;;;7.07;4.50;;;;;;;3.72;100.00;96995.38;7393664;19;20893;-75
2023/05/18 05:01:00;;;;;;;7.00;3.80;;;;;;;4.03;100.00;97024.88;7403393;19;20420;-74
2023/05/18 05:03:27;;;;;;;5.03;4.53;;;;;;;4.26;100.00;97022.69;7409733;19;20401;-74
2023/05/18 05:05:54;;;;;;;8.33;6.23;;;;;;;4.35;100.00;97011.41;7407306;19;20944;-74
2023/05/18 05:08:23;;;;;;;8.73;4.13;;;;;;;4.32;100.00;96998.06;7409726;19;20441;-74
2023/05/18 05:10:50;;;;;;;4.57;3.93;;;;;;;4.59;100.00;97016.78;7406919;19;20428;-74
2023/05/18 05:13:17;;;;;;;4.37;4.07;;;;;;;4.61;100.00;97014.69;7409519;19;20416;-74
2023/05/18 05:15:43;;;;;;;5.60;3.87;;;;;;;4.54;100.00;96972.31;7408563;19;20337;-75
2023/05/18 05:18:10;;;;;;;5.30;4.27;;;;;;;4.97;100.00;97014.47;7408812;19;20397;-74
2023/05/18 05:20:37;;;;;;;7.17;2.97;;;;;;;5.26;100.00;97051.22;7406010;19;20957;-74
2023/05/18 05:23:05;;;;;;;8.67;4.77;;;;;;;5.33;100.00;97034.09;7408735;19;20385;-75
2023/05/18 05:25:35;;;;;;;6.33;3.33;;;;;;;5.42;100.00;97034.28;7407573;19;20381;-74
2023/05/18 05:28:02;;;;;;;3.33;3.03;;;;;;;5.52;100.00;97033.44;7409104;19;20775;-74
2023/05/18 05:30:30;;;;;;;6.40;4.40;;;;;;;5.58;100.00;97027.06;7406221;19;20416;-74
2023/05/18 05:32:57;;;;;;;10.87;3.10;;;;;;;5.73;100.00;97066.28;7409029;19;20546;-74
2023/05/18 05:35:25;;;;;;;10.10;3.77;;;;;;;5.95;100.00;97065.06;7407277;19;20364;-74
2023/05/18 05:37:52;;;;;;;5.60;3.17;;;;;;;6.05;100.00;97050.00;7407561;19;20380;-74
2023/05/18 05:40:20;;;;;;;6.60;3.70;;;;;;;5.87;100.00;97022.59;7406128;19;20416;-74
2023/05/18 05:42:48;;;;;;;8.10;3.50;;;;;;;6.23;100.00;97056.38;7408755;19;20394;-75
2023/05/18 05:45:16;;;;;;;6.33;3.70;;;;;;;6.44;100.00;97064.81;7406994;19;20413;-74
2023/05/18 05:47:53;;;;;;;6.73;4.20;;;;;;;6.60;100.00;97047.00;7409170;19;20446;-75
2023/05/18 05:50:21;;;;;;;5.67;3.30;;;;;;;7.05;100.00;97056.91;7406672;19;20963;-74
2023/05/18 05:52:50;;;;;;;7.57;4.97;;;;;;;7.24;100.00;97045.59;7408629;19;20440;-74
2023/05/18 05:55:18;;;;;;;6.57;3.77;;;;;;;7.43;100.00;97046.34;7407659;19;20360;-74
2023/05/18 05:57:45;;;;;;;8.50;4.13;;;;;;;7.43;100.00;97009.50;7408539;19;20372;-76
2023/05/18 06:00:12;;;;;;;5.60;2.90;;;;;;;7.85;100.00;97058.53;7408150;19;20401;-76
2023/05/18 06:02:57;;;;;;;4.37;3.30;;;;;;;7.97;100.00;97047.53;7407955;19;20371;-75
2023/05/18 06:05:33;;;;;;;3.57;3.27;;;;;;;8.27;100.00;97044.31;7435865;19;20404;-74
2023/05/18 06:08:02;;;;;;;6.27;3.60;;;;;;;8.55;100.00;97044.34;7442194;19;20396;-74
2023/05/18 06:10:29;;;;;;;7.43;3.37;;;;;;;8.80;100.00;97061.47;7443328;19;20437;-73
2023/05/18 06:12:57;;;;;;;6.20;3.17;;;;;;;8.91;100.00;97069.97;7413006;19;20417;-76
2023/05/18 06:15:32;;;;;;;6.70;3.37;;;;;;;9.02;100.00;97061.53;7403606;19;20363;-75
2023/05/18 06:17:59;;;;;;;9.57;3.53;;;;;;;9.26;100.00;97074.47;7398756;19;20393;-75
2023/05/18 06:20:26;;;;;;;4.50;3.67;;;;;;;9.17;100.00;97081.53;7400482;19;20434;-75
2023/05/18 06:22:53;;;;;;;9.17;3.33;;;;;;;8.89;100.00;97062.34;7401999;19;20444;-75
2023/05/18 06:25:43;;;;;;;3.03;2.47;;;;;;;8.97;100.00;97060.88;7399295;19;20488;-76
2023/05/18 06:28:24;;;;;;;10.47;3.80;;;;;;;9.12;100.00;97058.69;7403540;19;20419;-77
2023/05/18 06:30:59;;;;;;;9.47;3.93;;;;;;;8.97;100.00;97056.38;7400113;19;20416;-76
2023/05/18 06:33:36;;;;;;;6.93;3.40;;;;;;;9.23;100.00;97040.75;7399898;19;20388;-76
2023/05/18 06:36:03;;;;;;;12.60;3.60;;;;;;;9.46;100.00;97050.22;7402056;19;20696;-76
2023/05/18 06:38:30;;;;;;;7.93;3.30;;;;;;;9.38;100.00;97080.00;7397361;19;20455;-76
2023/05/18 06:40:57;;;;;;;10.27;2.77;;;;;;;9.40;100.00;97069.13;7398804;19;20420;-76
2023/05/18 06:43:25;;;;;;;7.00;3.10;;;;;;;9.40;100.00;97080.47;7398331;19;20378;-76
2023/05/18 06:46:03;;;;;;;5.30;3.27;;;;;;;9.35;100.00;97100.94;7399748;19;20447;-76
2023/05/18 06:48:35;;;;;;;6.53;3.00;;;;;;;9.51;100.00;97073.09;7399057;19;20373;-76
2023/05/18 06:51:03;;;;;;;11.00;4.23;;;;;;;9.23;100.00;97009.09;7398798;19;20424;-76
2023/05/18 06:53:30;;;;;;;11.20;2.90;;;;;;;9.59;100.00;97058.38;7399800;19;20348;-74
2023/05/18 06:55:58;;;;;;;6.20;3.20;;;;;;;9.92;100.00;97096.66;7400572;19;20584;-74
2023/05/18 06:58:26;;;;;;;7.53;3.03;;;;;;;9.73;100.00;97077.56;7397365;19;20377;-75
2023/05/18 07:00:54;;;;;;;3.83;2.53;;;;;;;10.11;100.00;97093.00;7398385;19;20977;-74
2023/05/18 07:03:21;;;;;;;7.83;3.20;;;;;;;10.13;100.00;97096.13;7398606;19;20404;-75
2023/05/18 07:05:49;;;;;;;3.33;2.93;;;;;;;10.55;100.00;97090.28;7400007;19;20357;-74
2023/05/18 07:08:16;;;;;;;8.30;3.50;;;;;;;10.24;100.00;97063.09;7398574;19;20384;-75
2023/05/18 07:10:43;;;;;;;5.03;2.40;;;;;;;10.60;100.00;97097.28;7400459;19;20941;-74
2023/05/18 07:13:10;;;;;;;7.23;3.30;;;;;;;10.39;100.00;97083.03;7398332;19;20353;-74
2023/05/18 07:15:37;;;;;;;9.17;2.80;;;;;;;10.68;100.00;97087.78;7396570;19;20730;-75
2023/05/18 07:18:04;;;;;;;7.50;3.37;;;;;;;10.81;100.00;97068.38;7397737;19;20409;-75
2023/05/18 07:20:31;;;;;;;6.37;3.30;;;;;;;10.91;100.00;97078.66;7395814;19;20989;-74
2023/05/18 07:22:58;;;;;;;8.97;2.97;;;;;;;11.65;100.00;97083.06;7396691;19;20740;-74
2023/05/18 07:25:26;;;;;;;5.87;2.90;;;;;;;11.52;100.00;97092.72;7396775;19;20376;-74
2023/05/18 07:27:54;;;;;;;7.73;3.03;;;;;;;11.58;100.00;97091.47;7400139;19;20385;-75
2023/05/18 07:30:21;;;;;;;8.23;2.97;;;;;;;11.12;100.00;97086.81;7395614;19;20436;-75
2023/05/18 07:32:50;;;;;;;6.70;2.80;;;;;;;11.53;100.00;97073.88;7398131;19;20663;-75
2023/05/18 07:35:20;;;;;;;9.67;3.77;;;;;;;11.70;100.00;97085.53;7396863;19;20365;-75
2023/05/18 07:37:50;;;;;;;6.00;3.20;;;;;;;12.02;100.00;97081.56;7398939;19;20385;-75
2023/05/18 07:40:17;;;;;;;7.63;2.90;;;;;;;11.99;97.44;97092.81;7396125;19;20389;-75
2023/05/18 07:42:45;;;;;;;4.13;2.60;;;;;;;11.70;94.71;97088.94;7398125;19;20719;-75
2023/05/18 07:45:12;;;;;;;9.03;3.40;;;;;;;12.25;94.14;97101.47;7397866;19;20341;-75
2023/05/18 07:47:39;;;;;;;4.90;2.53;;;;;;;12.19;91.69;97073.59;7399831;19;20678;-76
2023/05/18 07:50:07;;;;;;;5.00;2.40;;;;;;;12.28;94.19;97089.44;7400116;19;20395;-76
2023/05/18 07:52:34;;;;;;;5.53;2.83;;;;;;;11.69;92.67;97054.84;7399109;19;20933;-76
2023/05/18 07:55:01;;;;;;;11.93;5.33;;;;;;;12.17;91.48;97051.94;7399665;19;20369;-76
2023/05/18 07:57:29;;;;;;;6.67;2.97;;;;;;;12.51;91.41;97072.19;7399009;19;20355;-76
2023/05/18 07:59:56;;;;;;;7.97;3.93;;;;;;;13.02;86.89;97095.00;7396070;19;20434;-76
2023/05/18 08:02:23;;;;;;;10.43;3.10;;;;;;;12.85;88.49;97060.63;7398030;19;20729;-76
2023/05/18 08:04:50;;;;;;;8.10;2.90;;;;;;;12.33;88.54;97074.16;7395914;19;20413;-76
2023/05/18 08:07:17;;;;;;;6.33;2.93;;;;;;;11.90;85.02;97061.06;7397865;19;20377;-76
2023/05/18 08:09:44;;;;;;;4.90;2.43;;;;;;;12.66;85.64;97095.53;7396815;19;20371;-75
2023/05/18 08:12:11;;;;;;;7.43;3.33;;;;;;;12.62;85.32;97091.97;7399868;19;20381;-75
2023/05/18 08:14:38;;;;;;;5.10;2.23;;;;;;;12.46;84.42;97092.81;7398118;19;20356;-75
2023/05/18 08:17:06;;;;;;;3.33;2.30;;;;;;;12.64;83.60;97081.03;7399957;19;20372;-75
2023/05/18 08:19:33;;;;;;;3.17;2.70;;;;;;;13.15;82.57;97084.47;7397593;19;20408;-76
2023/05/18 08:22:01;;;;;;;7.10;2.60;;;;;;;13.74;81.50;97095.69;7397510;19;20397;-74
2023/05/18 08:24:27;;;;;;;5.40;2.77;;;;;;;13.47;79.96;97099.69;7396319;19;20391;-75
2023/05/18 08:26:56;;;;;;;6.13;2.70;;;;;;;13.58;79.08;97100.06;7397299;19;20421;-76
2023/05/18 08:29:23;;;;;;;4.20;3.23;;;;;;;12.03;80.58;97083.16;7396565;19;20385;-76
2023/05/18 08:31:50;;;;;;;9.07;3.33;;;;;;;12.38;80.95;97070.53;7394043;19;20412;-75
2023/05/18 08:34:17;;;;;;;5.63;2.40;;;;;;;12.57;82.03;97084.19;7398508;19;20692;-75
2023/05/18 08:36:45;;;;;;;4.47;2.63;;;;;;;12.85;81.27;97062.50;7422567;19;20425;-75
2023/05/18 08:39:12;;;;;;;4.13;2.50;;;;;;;12.80;80.33;97060.78;7429431;19;20409;-74
2023/05/18 08:42:08;;;;;;;10.63;3.20;;;;;;;13.13;77.63;97094.63;7428210;19;20436;-74
2023/05/18 08:44:54;;;;;;;9.90;4.03;;;;;;;13.60;77.97;97088.00;7419269;19;20345;-75
2023/05/18 08:47:25;;;;;;;6.60;2.23;;;;;;;13.81;77.80;97101.28;7399938;19;20389;-75
2023/05/18 08:49:55;;;;;;;9.57;3.30;;;;;;;13.60;77.27;97089.91;7395147;19;20377;-75
2023/05/18 08:52:27;;;;;;;10.47;3.10;;;;;;;14.02;76.41;97089.78;7395196;19;20397;-75
2023/05/18 08:54:56;;;;;;;7.50;3.90;;;;;;;13.45;75.33;97082.53;7397351;19;20372;-75
2023/05/18 08:57:23;;;;;;;6.73;3.40;;;;;;;12.49;77.76;97092.19;7397393;19;20750;-76
2023/05/18 08:59:53;;;;;;;4.83;2.40;;;;;;;12.87;77.91;97086.84;7395509;19;20376;-75
2023/05/18 09:02:20;;;;;;;8.10;3.77;;;;;;;13.45;77.58;97051.44;7398952;19;20392;-75
2023/05/18 09:04:47;;;;;;;7.10;2.53;;;;;;;14.21;74.16;97066.13;7398334;19;20700;-76
2023/05/18 09:07:15;;;;;;;8.77;2.83;;;;;;;13.87;74.56;97089.31;7398451;19;20692;-75
2023/05/18 09:09:43;;;;;;;5.67;2.83;;;;;;;13.81;73.80;97080.00;7395642;19;20456;-74
2023/05/18 09:12:10;;;;;;;7.23;2.43;;;;;;;13.70;74.66;97072.78;7395610;19;20433;-74
2023/05/18 09:14:40;;;;;;;9.73;2.70;;;;;;;13.95;75.89;97082.38;7396119;19;20345;-74
2023/05/18 09:17:08;;;;;;;3.40;2.10;;;;;;;13.95;74.72;97069.09;7397102;19;20349;-74
2023/05/18 09:19:35;;;;;;;4.00;2.50;;;;;;;13.37;75.26;97044.31;7393415;19;20380;-74
2023/05/18 09:22:02;;;;;;;9.73;2.43;;;;;;;13.64;75.33;97053.59;7396013;19;20480;-74
2023/05/18 09:24:30;;;;;;;5.50;2.80;;;;;;;13.99;76.41;97085.13;7393972;19;20372;-74
2023/05/18 09:26:57;;;;;;;4.30;3.33;;;;;;;13.82;75.40;97059.53;7394344;19;20917;-74
2023/05/18 09:29:24;;;;;;;6.83;2.80;;;;;;;13.70;73.74;97088.72;7394792;19;20713;-73
2023/05/18 09:31:53;;;;;;;5.10;2.40;;;;;;;13.24;73.07;97058.66;7391171;19;20425;-73
2023/05/18 09:34:20;;;;;;;6.93;3.47;;;;;;;13.69;74.24;97068.56;7395587;19;20798;-73
2023/05/18 09:36:55;;;;;;;3.67;2.63;;;;;;;13.03;72.83;97075.31;7392677;19;20709;-73
2023/05/18 09:39:22;;;;;;;6.07;3.03;;;;;;;13.24;74.61;97091.28;7391426;19;20356;-73
2023/05/18 09:41:56;;;;;;;9.33;2.40;;;;;;;13.16;74.29;97060.22;7392170;19;20395;-73
2023/05/18 09:44:35;;;;;;;2.40;2.20;;;;;;;12.90;73.56;97080.88;7394706;19;20408;-73
2023/05/18 09:47:11;;;;;;;5.67;2.63;;;;;;;13.97;73.94;97095.34;7396491;19;20348;-74
2023/05/18 09:49:39;;;;;;;4.77;3.00;;;;;;;13.86;74.87;97102.94;7403975;19;20356;-74
2023/05/18 09:52:07;;;;;;;6.33;3.40;;;;;;;13.70;73.92;97094.81;7401197;19;20349;-74
2023/05/18 09:54:36;;;;;;;7.53;3.47;;;;;;;13.83;73.65;97069.81;7420729;19;20357;-73
2023/05/18 09:57:04;;;;;;;7.93;3.07;;;;;;;14.11;73.75;97067.34;7437035;19;20393;-73
2023/05/18 09:59:35;;;;;;;8.43;2.50;;;;;;;14.38;73.29;97089.09;7433142;19;20453;-73
2023/05/18 10:02:07;;;;;;;6.20;3.10;;;;;;;13.79;73.71;97086.75;7417209;19;20372;-73
2023/05/18 10:04:39;;;;;;;5.77;3.27;;;;;;;14.15;73.22;97086.06;7400524;19;20356;-73
2023/05/18 10:07:15;;;;;;;2.90;2.53;;;;;;;13.82;73.49;97089.53;7403157;19;20345;-73
2023/05/18 10:09:44;;;;;;;6.73;3.20;;;;;;;13.47;73.26;97078.44;7401683;19;20344;-73
2023/05/18 10:12:20;;;;;;;6.80;3.00;;;;;;;13.32;73.72;97081.69;7401815;19;20471;-73
2023/05/18 10:14:48;;;;;;;4.53;2.93;;;;;;;13.07;74.00;97077.31;7400263;19;20972;-73
2023/05/18 10:17:16;;;;;;;6.23;3.53;;;;;;;12.88;73.56;97073.25;7399472;19;20382;-73
2023/05/18 10:19:44;;;;;;;4.70;2.30;;;;;;;13.31;73.55;97064.22;7398523;19;20452;-73
2023/05/18 10:22:15;;;;;;;9.27;3.87;;;;;;;13.10;75.55;97077.47;7398536;19;20372;-74
2023/05/18 10:24:45;;;;;;;8.43;3.73;;;;;;;13.44;73.58;97070.34;7400318;19;20876;-75
2023/05/18 10:27:16;;;;;;;5.40;3.60;;;;;;;13.72;72.91;97073.22;7399348;19;20409;-75
2023/05/18 10:29:43;;;;;;;7.27;3.47;;;;;;;13.31;71.64;97069.50;7400008;19;20459;-74
2023/05/18 10:32:11;;;;;;;9.27;3.70;;;;;;;13.12;73.66;97077.16;7400136;19;20451;-74
2023/05/18 10:34:40;;;;;;;5.50;3.33;;;;;;;13.14;73.24;97070.41;7400537;19;20360;-74
2023/05/18 10:37:09;;;;;;;6.47;4.30;;;;;;;12.89;72.37;97080.09;7399896;19;20369;-74
2023/05/18 10:39:39;;;;;;;6.93;2.83;;;;;;;12.93;72.42;97072.25;7398858;19;20404;-73
2023/05/18 10:42:09;;;;;;;5.10;2.67;;;;;;;12.82;73.04;97077.19;7398912;19;20389;-75
2023/05/18 10:44:36;;;;;;;7.97;3.83;;;;;;;12.60;73.66;97077.47;7401832;19;20396;-74
2023/05/18 10:47:06;;;;;;;6.07;2.90;;;;;;;13.22;73.20;97066.94;7399003;19;20393;-74
2023/05/18 10:49:35;;;;;;;4.33;3.10;;;;;;;12.99;72.39;97071.75;7400996;19;20369;-74
2023/05/18 10:52:02;;;;;;;8.40;3.10;;;;;;;13.38;73.19;97040.56;7399069;19;20396;-73
2023/05/18 10:54:30;;;;;;;4.67;2.87;;;;;;;13.67;71.63;97058.25;7401755;19;20713;-75
2023/05/18 10:56:57;;;;;;;11.20;3.40;;;;;;;13.43;71.95;97058.94;7400276;19;20902;-74
2023/05/18 10:59:24;;;;;;;7.80;3.43;;;;;;;13.36;74.42;97058.72;7398470;19;20772;-75
2023/05/18 11:01:53;;;;;;;6.70;2.83;;;;;;;13.64;71.59;97040.31;7397767;19;20380;-74
2023/05/18 11:04:25;;;;;;;6.37;2.20;;;;;;;13.80;72.51;97062.50;7400482;19;20376;-74
2023/05/18 11:06:56;;;;;;;6.90;2.50;;;;;;;13.76;73.01;97060.84;7400465;19;20390;-74
2023/05/18 11:09:23;;;;;;;5.73;2.70;;;;;;;14.18;71.56;97056.94;7397749;19;20760;-74
2023/05/18 11:11:58;;;;;;;4.63;2.63;;;;;;;14.46;70.16;97062.41;7398358;19;20785;-74
2023/05/18 11:14:27;;;;;;;8.60;2.83;;;;;;;14.00;70.29;97005.03;7397914;19;20376;-74
2023/05/18 11:17:24;;;;;;;7.03;2.53;;;;;;;14.33;71.52;97046.75;7399191;19;20349;-74
2023/05/18 11:20:11;;;;;;;6.27;3.00;;;;;;;14.15;70.95;97048.81;7397212;19;20375;-73
2023/05/18 11:22:41;;;;;;;8.17;3.20;;;;;;;14.53;71.59;97050.41;7397701;19;20454;-73
2023/05/18 11:25:09;;;;;;;4.50;2.90;;;;;;;14.10;69.94;97041.06;7398839;19;20915;-73
2023/05/18 11:27:37;;;;;;;8.10;2.57;;;;;;;14.26;71.08;97043.84;7397702;19;20807;-73
2023/05/18 11:30:24;;;;;;;4.53;2.27;;;;;;;14.44;69.80;97048.66;7398346;19;20976;-73
2023/05/18 11:32:51;;;;;;;4.57;2.73;;;;;;;14.61;70.42;97046.88;7398548;19;20364;-74
2023/05/18 11:35:22;;;;;;;5.57;2.70;;;;;;;14.29;71.54;97029.88;7398559;19;20341;-74
2023/05/18 11:37:49;;;;;;;6.13;2.93;;;;;;;13.74;71.62;97017.84;7398342;19;20368;-74
2023/05/18 11:40:46;;;;;;;7.07;3.00;;;;;;;14.44;73.03;97037.25;7396506;19;20532;-74
2023/05/18 11:43:21;;;;;;;5.60;2.63;;;;;;;13.60;72.41;97040.19;7395774;19;20345;-73
2023/05/18 11:45:56;;;;;;;3.80;2.10;;;;;;;13.80;70.88;97040.47;7397278;19;20413;-73